ETIC 210156Z AUTO 00000KT 9999 OVC050 08/05 A3023 RMK AO2 SLP241 T00780054 $ ETIC 210056Z AUTO 00000KT 9999 OVC050 08/06 A3023 RMK AO2 SLP241 T00830059 $ ETIC 202356Z AUTO 00000KT 9999 OVC050 09/06 A3023 RMK AO2 SLP241 T00890058 10112 20089 52007 $ ETIC 202256Z AUTO 00000KT 9999 OVC048 09/06 A3023 RMK AO2 SLP241 T00920061 $ ETIC 202156Z AUTO 00000KT 9999 OVC047 09/06 A3022 RMK AO2 SLP238 T00940059 401380083 $ ETIC 202056Z AUTO 00000KT 9999 OVC049 10/05 A3021 RMK AO2 SLP234 T01000052 52015 $ ETIC 201956Z AUTO 00000KT 9999 OVC047 10/05 A3020 RMK AO2 SLP233 T01040052 $ ETIC 201856Z AUTO 00000KT 9999 OVC045 11/05 A3018 RMK AO2 SLP226 T01090054 $ ETIC 201756Z AUTO 00000KT 9999 OVC047 11/06 A3016 RMK AO2 SLP219 T01110060 10138 20111 52017 $ ETIC 201656Z AUTO 00000KT 9999 OVC045 12/07 A3015 RMK AO2 SLP216 T01180065 $ ETIC 201556Z AUTO 00000KT 9999 OVC045 13/05 A3013 RMK AO2 SLP207 T01260053 $ ETIC 201456Z AUTO 00000KT 9999 OVC044 13/06 A3011 RMK AO2 SLP200 T01310055 50003 $ ETIC 201356Z AUTO 00000KT 9999 OVC048 14/05 A3010 RMK AO2 SLP197 T01360047 $ ETIC 201256Z AUTO 00000KT 9999 OVC045 14/06 A3011 RMK AO2 SLP200 T01350056 $ ETIC 201156Z AUTO 09003KT 9999 OVC040 12/06 A3010 RMK AO2 SLP197 T01240056 10130 20091 50004 $ ETIC 201056Z AUTO 07003KT 9999 OVC044 13/05 A3010 RMK AO2 SLP197 T01250054 $ ETIC 200956Z AUTO 00000KT 9999 OVC047 12/05 A3010 RMK AO2 SLP197 T01220049 $ ETIC 200856Z AUTO 00000KT 9999 OVC043 12/05 A3009 RMK AO2 SLP193 T01160050 52009 $ ETIC 200756Z AUTO 00000KT 9999 OVC041 10/05 A3009 RMK AO2 SLP195 T01020050 $ ETIC 200656Z AUTO 00000KT 9999 OVC038 09/05 A3007 RMK AO2 SLP188 T00930053 $ ETIC 200556Z AUTO 00000KT 9999 OVC036 09/05 A3006 RMK AO2 SLP185 T00900054 10091 20083 52011 $ ETIC 200456Z AUTO 00000KT 9999 OVC034 09/06 A3005 RMK AO2 SLP179 T00880061 $ ETIC 200356Z AUTO 00000KT 9999 OVC033 09/07 A3004 RMK AO2 SLP176 T00850068 $ ETIC 200256Z AUTO 00000KT 9999 OVC034 09/06 A3003 RMK AO2 SLP173 T00860062 52003 $ ETIC 200156Z AUTO 00000KT 9999 OVC034 09/07 A3003 RMK AO2 SLP173 T00860067 $ ETIC 200056Z AUTO 00000KT 9999 OVC034 09/06 A3002 RMK AO2 SLP167 T00860064 $ ETIC 192356Z AUTO 00000KT 9999 OVC036 09/06 A3002 RMK AO2 SLP167 T00910060 10113 20088 52003 $ ETIC 192256Z AUTO 00000KT 9999 OVC039 09/05 A3001 RMK AO2 SLP164 T00900054 $ ETIC 192156Z AUTO 07003KT 9999 OVC037 10/05 A3001 RMK AO2 SLP164 T00960052 401480063 $ ETIC 192056Z AUTO 00000KT 9999 OVC035 10/06 A3001 RMK AO2 SLP164 T00990057 52009 $ ETIC 191956Z AUTO 09004KT 9999 OVC036 10/06 A3000 RMK AO2 SLP161 T01030063 $ ETIC 191856Z AUTO 00000KT 9999 FEW015 OVC036 11/09 A3000 RMK AO2 SLP162 T01110085 $ ETIC 191826Z AUTO 00000KT 9999 SCT023 OVC032 11/09 A2999 RMK AO2 SLP161 $ ETIC 191756Z AUTO 00000KT 9999 OVC023 11/09 A2998 RMK AO2 SLP159 T01130087 10145 20113 52009 $ ETIC 191656Z AUTO 00000KT 9999 OVC026 12/09 A2997 RMK AO2 SLP154 T01200090 $ ETIC 191556Z AUTO 04004KT 9999 FEW020 OVC027 13/09 A2996 RMK AO2 SLP149 T01280091 $ ETIC 191511Z AUTO 00000KT 9999 OVC028 13/09 A2995 RMK AO2 SLP147 $ ETIC 191456Z AUTO 00000KT 9999 OVC030 13/09 A2995 RMK AO2 SLP147 T01330092 50000 $

METAR Messwerte

Zurück zur Übersicht

Ort
m ü. NN
Zeit Temperatur Taupunkt Rel.
Luftfeuchte
Luftdruck:
Altimeter
NN
Station
Wind in Beaufort
(Knoten)
Sichtweite
(Meter)
Wolken
(Meter über Grund)
Wettererscheinung
Grafenwöhr
415
Di 21.09. 03:568581 %1024
1025
975
Windstill>= 10000Bedeckt (1500) 
Grafenwöhr
415
Di 21.09. 02:568687 %1024
1025
975
Windstill>= 10000Bedeckt (1500) 
Grafenwöhr
415
Di 21.09. 01:569681 %1024
1025
975
Windstill>= 10000Bedeckt (1500) 
Grafenwöhr
415
Di 21.09. 00:569681 %1024
1025
975
Windstill>= 10000Bedeckt (1500) 
Grafenwöhr
415
Mo 20.09. 23:569681 %1023
1024
974
Windstill>= 10000Bedeckt (1400) 
Grafenwöhr
415
Mo 20.09. 22:5610571 %1023
1024
974
Windstill>= 10000Bedeckt (1500) 
Grafenwöhr
415
Mo 20.09. 21:5610571 %1023
1024
974
Windstill>= 10000Bedeckt (1400) 
Grafenwöhr
415
Mo 20.09. 20:5611566 %1022
1023
973
Windstill>= 10000Bedeckt (1400) 
Grafenwöhr
415
Mo 20.09. 19:5611671 %1021
1022
972
Windstill>= 10000Bedeckt (1400) 
Grafenwöhr
415
Mo 20.09. 18:5612771 %1021
1022
972
Windstill>= 10000Bedeckt (1400) 
Grafenwöhr
415
Mo 20.09. 17:5613558 %1020
1020
971
Windstill>= 10000Bedeckt (1400) 
Grafenwöhr
415
Mo 20.09. 16:5613662 %1020
1020
971
Windstill>= 10000Bedeckt (1300) 
Grafenwöhr
415
Mo 20.09. 15:5614555 %1019
1019
970
Windstill>= 10000Bedeckt (1500) 
Grafenwöhr
415
Mo 20.09. 14:5614658 %1020
1020
971
Windstill>= 10000Bedeckt (1400) 
Grafenwöhr
415
Mo 20.09. 13:5612667 %1019
1020
970
O 2 (3)>= 10000Bedeckt (1200) 
Grafenwöhr
415
Mo 20.09. 12:5613558 %1019
1019
970
ONO 2 (3)>= 10000Bedeckt (1300) 
Grafenwöhr
415
Mo 20.09. 11:5612562 %1019
1020
970
Windstill>= 10000Bedeckt (1400) 
Grafenwöhr
415
Mo 20.09. 10:5612562 %1019
1020
970
Windstill>= 10000Bedeckt (1300) 
Grafenwöhr
415
Mo 20.09. 09:5610571 %1019
1020
970
Windstill>= 10000Bedeckt (1200) 
Grafenwöhr
415
Mo 20.09. 08:569576 %1018
1019
969
Windstill>= 10000Bedeckt (1200) 
Grafenwöhr
415
Mo 20.09. 07:569576 %1018
1019
969
Windstill>= 10000Bedeckt (1100) 
Grafenwöhr
415
Mo 20.09. 06:569681 %1018
1019
969
Windstill>= 10000Bedeckt (1000) 
Grafenwöhr
415
Mo 20.09. 05:569787 %1017
1018
968
Windstill>= 10000Bedeckt (1000) 
Grafenwöhr
415
Mo 20.09. 04:569681 %1017
1018
968
Windstill>= 10000Bedeckt (1000) 
Grafenwöhr
415
Mo 20.09. 03:569787 %1017
1018
968
Windstill>= 10000Bedeckt (1000) 
Grafenwöhr
415
Mo 20.09. 02:569681 %1017
1018
968
Windstill>= 10000Bedeckt (1000) 
Grafenwöhr
415
Mo 20.09. 01:569681 %1017
1018
968
Windstill>= 10000Bedeckt (1100) 
Grafenwöhr
415
Mo 20.09. 00:569576 %1016
1017
967
Windstill>= 10000Bedeckt (1200) 
Grafenwöhr
415
So 19.09. 23:5610571 %1016
1017
967
ONO 2 (3)>= 10000Bedeckt (1100) 
Grafenwöhr
415
So 19.09. 22:5610676 %1016
1017
967
Windstill>= 10000Bedeckt (1100) 
Grafenwöhr
415
So 19.09. 21:5610676 %1016
1017
967
O 2 (4)>= 10000Bedeckt (1100) 
Grafenwöhr
415
So 19.09. 20:5611987 %1016
1017
967
Windstill>= 10000Bedeckt (1100)
Leicht bewölkt (460)
 
Grafenwöhr
415
So 19.09. 20:2611987 %1016
1017
967
Windstill>= 10000Bedeckt (980)
Wolkig (700)
 
Grafenwöhr
415
So 19.09. 19:5611987 %1015
1016
966
Windstill>= 10000Bedeckt (700) 
Grafenwöhr
415
So 19.09. 18:5612982 %1015
1016
966
Windstill>= 10000Bedeckt (790) 
Grafenwöhr
415
So 19.09. 17:5613977 %1015
1015
966
NO 2 (4)>= 10000Bedeckt (820)
Leicht bewölkt (610)
 
Grafenwöhr
415
So 19.09. 17:1113977 %1014
1014
965
Windstill>= 10000Bedeckt (850) 
Grafenwöhr
415
So 19.09. 16:5613977 %1014
1014
965
Windstill>= 10000Bedeckt (910) 

Altimeter: Einstellung am Altimeter (Höhenmesser), die Höhe 0 muss auf diesen Luftdruckwert zeigen, damit das Gerät die Stationshöhe richtig anzeigt.

NN: Luftdruck reduziert auf "Normal Null", auf Meereshöhe, dieser von der Temperatur abhängige Wert wird bisweilen unkorrekt einfach als "Luftdruck" bezeichnet. Eigentlich nur eine fiktive Größe, die es erlaubt, Stationen auf unterschiedlichen Höhen miteinander zu vergleichen.

Station: Realer Luftdruck an der Station.